createdAt,value
2023-11-26T00:01:00.951Z,0.94
2023-11-26T00:03:33.773Z,0.91
2023-11-26T00:05:46.867Z,0.89
2023-11-26T00:07:59.776Z,0.89
2023-11-26T00:10:14.422Z,0.90
2023-11-26T00:12:27.896Z,0.91
2023-11-26T00:14:40.980Z,0.92
2023-11-26T00:16:53.982Z,0.91
2023-11-26T00:19:07.078Z,0.91
2023-11-26T00:21:19.894Z,0.92
2023-11-26T00:23:35.440Z,0.91
2023-11-26T00:25:48.303Z,0.90
2023-11-26T00:28:01.254Z,0.88
2023-11-26T00:30:14.781Z,0.89
2023-11-26T00:32:27.677Z,0.89
2023-11-26T00:34:40.567Z,0.91
2023-11-26T00:36:53.405Z,0.92
2023-11-26T00:39:06.290Z,0.93
2023-11-26T00:41:19.199Z,0.93
2023-11-26T00:43:32.059Z,0.94
2023-11-26T00:45:45.015Z,0.93
2023-11-26T00:48:00.306Z,0.93
2023-11-26T00:50:15.499Z,0.94
2023-11-26T00:52:28.675Z,0.94
2023-11-26T00:54:42.327Z,0.92
2023-11-26T00:56:55.211Z,0.90
2023-11-26T00:59:08.109Z,0.89
2023-11-26T01:01:21.117Z,0.89
2023-11-26T01:03:34.270Z,0.90
2023-11-26T01:05:47.174Z,0.91
2023-11-26T01:08:02.895Z,0.90
2023-11-26T01:10:15.831Z,0.89
2023-11-26T01:12:29.050Z,0.89
2023-11-26T01:14:42.086Z,0.87
2023-11-26T01:16:55.473Z,0.86
2023-11-26T01:19:08.484Z,0.83
2023-11-26T01:21:21.428Z,0.79
2023-11-26T01:23:34.273Z,0.78
2023-11-26T01:25:47.147Z,0.78
2023-11-26T01:28:00.035Z,0.79
2023-11-26T01:30:13.334Z,0.78
2023-11-26T01:32:27.176Z,0.77
2023-11-26T01:34:40.383Z,0.75
2023-11-26T01:36:53.215Z,0.76
2023-11-26T01:39:08.842Z,0.76
2023-11-26T01:41:22.193Z,0.76
2023-11-26T01:43:35.085Z,0.76
2023-11-26T01:45:47.924Z,0.78
2023-11-26T01:48:01.194Z,0.79
2023-11-26T01:50:25.532Z,0.77
2023-11-26T01:52:38.750Z,0.74
2023-11-26T01:54:52.687Z,0.74
2023-11-26T01:57:07.024Z,0.73
2023-11-26T01:59:20.773Z,0.72
2023-11-26T02:01:35.877Z,0.71
2023-11-26T02:03:49.220Z,0.69
2023-11-26T02:06:02.809Z,0.66
2023-11-26T02:08:17.320Z,0.64
2023-11-26T02:10:30.203Z,0.62
2023-11-26T02:13:02.001Z,0.61
2023-11-26T02:15:15.713Z,0.57
2023-11-26T02:17:28.725Z,0.57
2023-11-26T02:19:42.844Z,0.59
2023-11-26T02:21:55.712Z,0.59
2023-11-26T02:24:14.019Z,0.60
2023-11-26T02:26:26.970Z,0.59
2023-11-26T02:28:43.158Z,0.61
2023-11-26T02:30:55.986Z,0.62
2023-11-26T02:33:08.862Z,0.62
2023-11-26T02:35:21.765Z,0.62
2023-11-26T02:37:34.603Z,0.62
2023-11-26T02:39:47.460Z,0.60
2023-11-26T02:42:00.410Z,0.58
2023-11-26T02:44:14.118Z,0.58
2023-11-26T02:46:27.729Z,0.59
2023-11-26T02:48:42.899Z,0.59
2023-11-26T02:50:55.700Z,0.59
2023-11-26T02:53:09.214Z,0.59
2023-11-26T02:55:23.142Z,0.58
2023-11-26T02:57:36.276Z,0.59
2023-11-26T02:59:49.160Z,0.58
2023-11-26T03:02:02.182Z,0.57
2023-11-26T03:04:20.396Z,0.55
2023-11-26T03:06:33.504Z,0.53
2023-11-26T03:08:46.708Z,0.52
2023-11-26T03:11:20.648Z,0.51
2023-11-26T03:13:34.030Z,0.47
2023-11-26T03:15:49.343Z,0.46
2023-11-26T03:18:04.373Z,0.46
2023-11-26T03:20:19.260Z,0.46
2023-11-26T03:22:32.790Z,0.47
2023-11-26T03:24:45.769Z,0.47
2023-11-26T03:26:58.574Z,0.47
2023-11-26T03:29:11.519Z,0.48
2023-11-26T03:31:25.395Z,0.48
2023-11-26T03:33:39.498Z,0.48
2023-11-26T03:35:52.441Z,0.48
2023-11-26T03:38:05.385Z,0.50
2023-11-26T03:40:25.183Z,0.51
2023-11-26T03:42:38.121Z,0.50
2023-11-26T03:44:51.069Z,0.49
2023-11-26T03:47:05.755Z,0.49
2023-11-26T03:49:18.610Z,0.49
2023-11-26T03:51:31.551Z,0.47
2023-11-26T03:53:44.524Z,0.43
2023-11-26T03:55:57.530Z,0.35
2023-11-26T03:58:11.488Z,0.30
2023-11-26T04:00:24.700Z,0.27
2023-11-26T04:02:38.346Z,0.20
2023-11-26T04:04:55.263Z,0.14
2023-11-26T04:07:08.284Z,0.10
2023-11-26T04:09:21.226Z,0.07
2023-11-26T04:11:34.147Z,0.07
2023-11-26T04:13:47.072Z,0.09
2023-11-26T04:16:00.088Z,0.09
2023-11-26T04:18:14.236Z,0.08
2023-11-26T04:20:28.347Z,0.09
2023-11-26T04:22:42.612Z,0.07
2023-11-26T04:24:56.477Z,0.04
2023-11-26T04:27:09.563Z,0.03
2023-11-26T04:29:23.268Z,0.00
2023-11-26T04:31:36.209Z,-0.00
2023-11-26T04:33:49.623Z,0.00
2023-11-26T04:36:03.530Z,-0.02
2023-11-26T04:38:17.165Z,-0.02
2023-11-26T04:40:30.201Z,-0.01
2023-11-26T04:42:43.070Z,0.00
2023-11-26T04:44:55.928Z,0.02
2023-11-26T04:47:10.303Z,0.06
2023-11-26T04:49:25.150Z,0.08
2023-11-26T04:51:40.248Z,0.06
2023-11-26T04:53:53.291Z,0.00
2023-11-26T04:56:06.702Z,-0.05
2023-11-26T04:58:19.723Z,-0.14
2023-11-26T05:00:32.628Z,-0.22
2023-11-26T05:02:45.774Z,-0.27
2023-11-26T05:04:58.825Z,-0.30
2023-11-26T05:07:12.012Z,-0.32
2023-11-26T05:09:26.072Z,-0.34
2023-11-26T05:11:47.090Z,-0.35
2023-11-26T05:14:00.448Z,-0.37
2023-11-26T05:16:13.398Z,-0.40
2023-11-26T05:18:26.333Z,-0.42
2023-11-26T05:20:39.228Z,-0.41
2023-11-26T05:22:52.229Z,-0.43
2023-11-26T05:25:05.395Z,-0.45
2023-11-26T05:27:18.279Z,-0.48
2023-11-26T05:29:32.337Z,-0.51
2023-11-26T05:31:45.303Z,-0.51
2023-11-26T05:33:58.291Z,-0.50
2023-11-26T05:36:11.339Z,-0.50
2023-11-26T05:38:24.272Z,-0.51
2023-11-26T05:40:37.335Z,-0.53
2023-11-26T05:42:50.802Z,-0.56
2023-11-26T05:45:05.936Z,-0.58
2023-11-26T05:47:18.927Z,-0.60
2023-11-26T05:49:32.246Z,-0.62
2023-11-26T05:51:45.182Z,-0.64
2023-11-26T05:53:58.140Z,-0.66
2023-11-26T05:56:11.028Z,-0.70
2023-11-26T05:58:23.941Z,-0.74
2023-11-26T06:00:36.875Z,-0.76
2023-11-26T06:02:52.154Z,-0.76
2023-11-26T06:05:05.328Z,-0.77
2023-11-26T06:07:18.403Z,-0.76
2023-11-26T06:09:31.869Z,-0.75
2023-11-26T06:11:45.165Z,-0.75
2023-11-26T06:13:58.159Z,-0.73
2023-11-26T06:16:11.795Z,-0.71
2023-11-26T06:18:24.711Z,-0.70
2023-11-26T06:20:38.270Z,-0.69
2023-11-26T06:22:51.306Z,-0.68
2023-11-26T06:25:06.388Z,-0.68
2023-11-26T06:27:19.662Z,-0.69
2023-11-26T06:29:33.146Z,-0.67
2023-11-26T06:31:45.928Z,-0.64
2023-11-26T06:33:59.238Z,-0.62
2023-11-26T06:36:25.922Z,-0.59
2023-11-26T06:38:38.832Z,-0.60
2023-11-26T06:40:52.019Z,-0.56
2023-11-26T06:43:05.714Z,-0.52
2023-11-26T06:45:18.747Z,-0.50
2023-11-26T06:47:31.911Z,-0.48
2023-11-26T06:49:46.421Z,-0.46
2023-11-26T06:51:59.255Z,-0.46
2023-11-26T06:54:12.186Z,-0.43
2023-11-26T06:56:25.260Z,-0.41
2023-11-26T06:58:38.761Z,-0.42
2023-11-26T07:00:51.889Z,-0.44
2023-11-26T07:03:04.909Z,-0.45
2023-11-26T07:05:17.907Z,-0.46
2023-11-26T07:07:30.793Z,-0.48
2023-11-26T07:09:43.634Z,-0.48
2023-11-26T07:11:56.512Z,-0.47
2023-11-26T07:14:10.257Z,-0.46
2023-11-26T07:16:24.488Z,-0.44
2023-11-26T07:18:37.413Z,-0.43
2023-11-26T07:20:50.515Z,-0.42
2023-11-26T07:23:03.406Z,-0.40
2023-11-26T07:25:17.395Z,-0.37
2023-11-26T07:27:30.257Z,-0.35
2023-11-26T07:29:43.110Z,-0.33
2023-11-26T07:31:56.369Z,-0.27
2023-11-26T07:34:09.218Z,-0.23
2023-11-26T07:36:26.216Z,-0.21
2023-11-26T07:38:39.214Z,-0.18
2023-11-26T07:40:52.065Z,-0.16
2023-11-26T07:43:05.919Z,-0.11
2023-11-26T07:45:19.412Z,-0.07
2023-11-26T07:47:33.511Z,-0.04
2023-11-26T07:49:46.530Z,-0.01
2023-11-26T07:51:59.499Z,0.03
2023-11-26T07:54:19.673Z,0.03
2023-11-26T07:56:39.791Z,0.01
2023-11-26T07:58:52.722Z,0.03
2023-11-26T08:01:07.497Z,0.07
2023-11-26T08:03:20.456Z,0.10
2023-11-26T08:05:38.158Z,0.12
2023-11-26T08:07:52.846Z,0.10
2023-11-26T08:10:11.311Z,0.15
2023-11-26T08:12:26.113Z,0.18
2023-11-26T08:14:39.022Z,0.18
2023-11-26T08:16:53.188Z,0.18
2023-11-26T08:19:13.002Z,0.21
2023-11-26T08:21:28.876Z,0.18
2023-11-26T08:23:45.032Z,0.18
2023-11-26T08:26:06.455Z,0.19
2023-11-26T08:28:30.032Z,0.22
2023-11-26T08:30:45.364Z,0.24
2023-11-26T08:33:03.841Z,0.26
2023-11-26T08:35:18.042Z,0.30
2023-11-26T08:37:31.196Z,0.35
2023-11-26T08:39:45.846Z,0.40
2023-11-26T08:41:59.162Z,0.48
2023-11-26T08:44:13.732Z,0.62
2023-11-26T08:46:28.275Z,0.71
2023-11-26T08:48:41.255Z,0.76
2023-11-26T08:50:54.076Z,0.81
2023-11-26T08:53:10.468Z,0.80
2023-11-26T08:55:24.000Z,0.87
2023-11-26T08:57:41.044Z,0.93
2023-11-26T08:59:54.326Z,0.95
2023-11-26T09:02:07.249Z,0.92
2023-11-26T09:04:20.255Z,0.87
2023-11-26T09:06:33.450Z,0.81
2023-11-26T09:08:52.292Z,0.83
2023-11-26T09:11:05.237Z,0.89
2023-11-26T09:13:18.487Z,0.98
2023-11-26T09:15:31.366Z,0.99
2023-11-26T09:17:44.426Z,0.93
2023-11-26T09:19:57.297Z,0.93
2023-11-26T09:22:10.186Z,1.06
2023-11-26T09:24:22.998Z,1.06
2023-11-26T09:26:35.811Z,1.08
2023-11-26T09:28:53.938Z,1.12
2023-11-26T09:31:10.696Z,1.11
2023-11-26T09:33:23.588Z,1.20
2023-11-26T09:35:36.537Z,1.31
2023-11-26T09:37:49.731Z,1.33
2023-11-26T09:40:03.652Z,1.32
2023-11-26T09:42:23.121Z,1.34
2023-11-26T09:44:36.058Z,1.37
2023-11-26T09:46:52.103Z,1.40
2023-11-26T09:49:06.787Z,1.42
2023-11-26T09:51:24.313Z,1.63
2023-11-26T09:53:39.040Z,1.89
2023-11-26T09:55:53.305Z,2.12
2023-11-26T09:58:06.231Z,2.31
2023-11-26T10:00:21.703Z,2.49
2023-11-26T10:02:34.771Z,2.63
2023-11-26T10:04:49.209Z,2.74
2023-11-26T10:07:02.190Z,2.82
2023-11-26T10:09:19.593Z,2.96
2023-11-26T10:11:33.130Z,3.14
2023-11-26T10:13:45.940Z,3.28
2023-11-26T10:15:58.990Z,3.24
2023-11-26T10:18:13.993Z,2.89
2023-11-26T10:20:27.680Z,2.55
2023-11-26T10:22:47.476Z,2.32
2023-11-26T10:25:12.729Z,2.11
2023-11-26T10:27:26.169Z,2.12
2023-11-26T10:29:44.083Z,2.32
2023-11-26T10:32:08.153Z,2.36
2023-11-26T10:34:21.127Z,2.39
2023-11-26T10:36:34.544Z,2.43
2023-11-26T10:38:47.476Z,2.68
2023-11-26T10:41:01.191Z,2.94
2023-11-26T10:43:14.865Z,3.05
2023-11-26T10:45:28.937Z,3.13
2023-11-26T10:47:44.565Z,3.07
2023-11-26T10:50:04.649Z,3.04
2023-11-26T10:52:26.793Z,2.94
2023-11-26T10:54:58.886Z,3.05
2023-11-26T10:57:17.746Z,3.24
2023-11-26T10:59:37.664Z,3.39
2023-11-26T11:01:51.096Z,3.41
2023-11-26T11:04:06.442Z,3.38
2023-11-26T11:06:21.429Z,3.50
2023-11-26T11:08:35.608Z,3.68
2023-11-26T11:11:17.925Z,4.00
2023-11-26T11:13:32.299Z,4.11
2023-11-26T11:15:46.503Z,4.14
2023-11-26T11:17:59.642Z,3.95
2023-11-26T11:20:12.726Z,3.57
2023-11-26T11:22:35.826Z,3.27
2023-11-26T11:24:49.684Z,3.05
2023-11-26T11:27:02.608Z,2.83
2023-11-26T11:29:43.525Z,2.71
2023-11-26T11:32:00.124Z,2.56
2023-11-26T11:34:13.067Z,2.37
2023-11-26T11:36:48.231Z,2.32
2023-11-26T11:39:07.570Z,2.27
2023-11-26T11:41:20.390Z,2.17
2023-11-26T11:43:33.282Z,2.17
2023-11-26T11:45:46.128Z,2.17
2023-11-26T11:47:59.022Z,2.16
2023-11-26T11:50:12.307Z,2.20
2023-11-26T11:52:25.156Z,2.18
2023-11-26T11:54:38.127Z,2.08
2023-11-26T11:56:59.754Z,2.01
2023-11-26T11:59:13.090Z,1.93
2023-11-26T12:01:26.649Z,1.91
2023-11-26T12:03:40.663Z,1.90
2023-11-26T12:05:54.001Z,1.92
2023-11-26T12:08:13.892Z,1.95
2023-11-26T12:10:28.500Z,1.89
2023-11-26T12:12:41.351Z,1.83
2023-11-26T12:14:55.194Z,1.79
2023-11-26T12:17:08.861Z,1.78
2023-11-26T12:19:21.937Z,1.78
2023-11-26T12:21:36.232Z,1.73
2023-11-26T12:23:49.088Z,1.91
2023-11-26T12:26:03.783Z,2.30
2023-11-26T12:28:17.462Z,2.68
2023-11-26T12:30:30.554Z,2.94
2023-11-26T12:32:44.269Z,3.16
2023-11-26T12:35:02.250Z,3.40
2023-11-26T12:37:16.770Z,3.55
2023-11-26T12:39:29.841Z,3.61
2023-11-26T12:41:43.248Z,3.48
2023-11-26T12:43:57.882Z,3.44
2023-11-26T12:46:17.236Z,3.40
2023-11-26T12:48:33.501Z,3.37
2023-11-26T12:50:46.439Z,3.20
2023-11-26T12:52:59.297Z,3.10
2023-11-26T12:55:12.793Z,3.06
2023-11-26T12:57:25.786Z,2.88
2023-11-26T12:59:49.451Z,2.72
2023-11-26T13:02:17.015Z,2.48
2023-11-26T13:04:31.016Z,2.29
2023-11-26T13:06:54.658Z,2.21
2023-11-26T13:09:08.813Z,2.19
2023-11-26T13:11:21.738Z,2.19
2023-11-26T13:13:34.799Z,2.09
2023-11-26T13:15:49.173Z,1.99
2023-11-26T13:18:02.142Z,1.95
2023-11-26T13:20:20.427Z,1.85
2023-11-26T13:23:04.222Z,1.82
2023-11-26T13:25:18.840Z,1.73
2023-11-26T13:27:31.881Z,1.66
2023-11-26T13:29:45.390Z,1.57
2023-11-26T13:31:59.373Z,1.54
2023-11-26T13:34:12.430Z,1.57
2023-11-26T13:36:25.582Z,1.59
2023-11-26T13:38:39.673Z,1.54
2023-11-26T13:40:53.078Z,1.50
2023-11-26T13:43:07.578Z,1.49
2023-11-26T13:45:22.385Z,1.48
2023-11-26T13:47:37.993Z,1.50
2023-11-26T13:49:52.485Z,1.55
2023-11-26T13:52:06.233Z,1.55
2023-11-26T13:54:19.156Z,1.48
2023-11-26T13:56:32.027Z,1.45
2023-11-26T13:58:45.657Z,1.45
2023-11-26T14:00:58.681Z,1.46
2023-11-26T14:03:12.530Z,1.46
2023-11-26T14:05:25.899Z,1.40
2023-11-26T14:07:46.053Z,1.37
2023-11-26T14:09:59.063Z,1.37
2023-11-26T14:12:12.153Z,1.36
2023-11-26T14:14:29.357Z,1.33
2023-11-26T14:16:45.329Z,1.28
2023-11-26T14:18:59.525Z,1.21
2023-11-26T14:21:13.701Z,1.06
2023-11-26T14:23:26.782Z,0.99
2023-11-26T14:25:40.655Z,0.92
2023-11-26T14:27:54.049Z,0.83
2023-11-26T14:30:16.333Z,0.76
2023-11-26T14:32:35.166Z,0.68
2023-11-26T14:34:48.189Z,0.60
2023-11-26T14:37:01.618Z,0.55
2023-11-26T14:39:14.653Z,0.52
2023-11-26T14:41:27.730Z,0.48
2023-11-26T14:43:41.354Z,0.46
2023-11-26T14:45:56.565Z,0.45
2023-11-26T14:48:10.303Z,0.41
2023-11-26T14:50:23.552Z,0.37
2023-11-26T14:52:39.822Z,0.36
2023-11-26T14:54:53.072Z,0.37
2023-11-26T14:57:06.932Z,0.38
2023-11-26T14:59:21.039Z,0.35
2023-11-26T15:01:34.029Z,0.35
2023-11-26T15:03:48.795Z,0.32
2023-11-26T15:06:06.543Z,0.28
2023-11-26T15:08:19.436Z,0.26
2023-11-26T15:10:32.646Z,0.24
2023-11-26T15:12:47.841Z,0.19
2023-11-26T15:15:01.143Z,0.13
2023-11-26T15:17:14.799Z,0.06
2023-11-26T15:19:28.476Z,0.01
2023-11-26T15:21:41.376Z,-0.03
2023-11-26T15:23:54.407Z,-0.06
2023-11-26T15:26:09.322Z,-0.10
2023-11-26T15:28:22.470Z,-0.15
2023-11-26T15:30:37.786Z,-0.17
2023-11-26T15:32:50.933Z,-0.19
2023-11-26T15:35:04.904Z,-0.20
2023-11-26T15:37:17.876Z,-0.20
2023-11-26T15:39:33.068Z,-0.20
2023-11-26T15:41:46.683Z,-0.22
2023-11-26T15:44:00.909Z,-0.23
2023-11-26T15:46:21.306Z,-0.23
2023-11-26T15:48:35.238Z,-0.28
2023-11-26T15:50:57.451Z,-0.31
2023-11-26T15:53:10.432Z,-0.37
2023-11-26T15:55:25.684Z,-0.40
2023-11-26T15:57:38.636Z,-0.43
2023-11-26T15:59:52.963Z,-0.47
2023-11-26T16:02:06.715Z,-0.50
2023-11-26T16:04:20.225Z,-0.53
2023-11-26T16:06:33.434Z,-0.54
2023-11-26T16:08:47.432Z,-0.56
2023-11-26T16:11:01.735Z,-0.58
2023-11-26T16:13:15.755Z,-0.61
2023-11-26T16:15:30.167Z,-0.63
2023-11-26T16:17:43.986Z,-0.68
2023-11-26T16:19:57.095Z,-0.72
2023-11-26T16:22:10.276Z,-0.76
2023-11-26T16:24:29.107Z,-0.78
2023-11-26T16:26:48.450Z,-0.82
2023-11-26T16:29:01.661Z,-0.85
2023-11-26T16:31:14.728Z,-0.87
2023-11-26T16:33:47.950Z,-0.89
2023-11-26T16:36:03.379Z,-0.94
2023-11-26T16:38:17.746Z,-0.97
2023-11-26T16:40:33.992Z,-1.00
2023-11-26T16:42:50.453Z,-1.02
2023-11-26T16:45:04.283Z,-1.06
2023-11-26T16:47:17.367Z,-1.07
2023-11-26T16:49:31.992Z,-1.10
2023-11-26T16:51:47.447Z,-1.12
2023-11-26T16:54:02.462Z,-1.15
2023-11-26T16:56:17.146Z,-1.16
2023-11-26T16:58:31.307Z,-1.18
2023-11-26T17:00:45.529Z,-1.19
2023-11-26T17:03:06.246Z,-1.20
2023-11-26T17:05:23.151Z,-1.20
2023-11-26T17:07:37.863Z,-1.19
2023-11-26T17:09:52.422Z,-1.17
2023-11-26T17:12:08.909Z,-1.17
2023-11-26T17:14:26.364Z,-1.18
2023-11-26T17:16:42.982Z,-1.20
2023-11-26T17:18:59.954Z,-1.22
2023-11-26T17:21:16.189Z,-1.23
2023-11-26T17:23:31.087Z,-1.26
2023-11-26T17:25:49.147Z,-1.26
2023-11-26T17:28:06.540Z,-1.26
2023-11-26T17:30:20.813Z,-1.29
2023-11-26T17:32:35.357Z,-1.31
2023-11-26T17:34:48.385Z,-1.34
2023-11-26T17:37:01.489Z,-1.36
2023-11-26T17:39:16.720Z,-1.37
2023-11-26T17:41:29.629Z,-1.37
2023-11-26T17:43:42.541Z,-1.38
2023-11-26T17:45:57.415Z,-1.39
2023-11-26T17:48:10.456Z,-1.41
2023-11-26T17:50:23.617Z,-1.42
2023-11-26T17:52:37.743Z,-1.44
2023-11-26T17:54:51.286Z,-1.46
2023-11-26T17:57:05.425Z,-1.47
2023-11-26T17:59:18.503Z,-1.47
2023-11-26T18:01:31.726Z,-1.51
2023-11-26T18:03:44.865Z,-1.52
2023-11-26T18:06:01.435Z,-1.54
2023-11-26T18:08:14.610Z,-1.56
2023-11-26T18:10:27.513Z,-1.58
2023-11-26T18:12:40.357Z,-1.61
2023-11-26T18:14:55.187Z,-1.62
2023-11-26T18:17:08.783Z,-1.65
2023-11-26T18:19:22.860Z,-1.66
2023-11-26T18:21:45.145Z,-1.67
2023-11-26T18:23:58.380Z,-1.70
2023-11-26T18:26:13.099Z,-1.71
2023-11-26T18:28:27.217Z,-1.72
2023-11-26T18:30:40.291Z,-1.71
2023-11-26T18:32:54.375Z,-1.70
2023-11-26T18:35:07.946Z,-1.70
2023-11-26T18:37:22.878Z,-1.69
2023-11-26T18:39:41.762Z,-1.69
2023-11-26T18:41:56.069Z,-1.68
2023-11-26T18:44:10.589Z,-1.67
2023-11-26T18:46:24.250Z,-1.63
2023-11-26T18:48:40.147Z,-1.64
2023-11-26T18:50:53.841Z,-1.65
2023-11-26T18:53:10.497Z,-1.65
2023-11-26T18:55:26.634Z,-1.67
2023-11-26T18:57:40.776Z,-1.67
2023-11-26T18:59:54.671Z,-1.65
2023-11-26T19:02:08.364Z,-1.66
2023-11-26T19:04:22.990Z,-1.64
2023-11-26T19:06:36.304Z,-1.63
2023-11-26T19:08:56.242Z,-1.62
2023-11-26T19:11:12.832Z,-1.61
2023-11-26T19:13:28.080Z,-1.58
2023-11-26T19:15:41.642Z,-1.56
2023-11-26T19:17:55.432Z,-1.52
2023-11-26T19:20:11.034Z,-1.47
2023-11-26T19:22:24.093Z,-1.43
2023-11-26T19:24:38.019Z,-1.40
2023-11-26T19:26:51.006Z,-1.35
2023-11-26T19:29:04.394Z,-1.31
2023-11-26T19:31:20.252Z,-1.28
2023-11-26T19:33:33.607Z,-1.24
2023-11-26T19:35:50.240Z,-1.22
2023-11-26T19:38:03.140Z,-1.21
2023-11-26T19:40:16.179Z,-1.19
2023-11-26T19:42:29.495Z,-1.19
2023-11-26T19:44:42.434Z,-1.15
2023-11-26T19:46:56.910Z,-1.11
2023-11-26T19:49:10.514Z,-1.08
2023-11-26T19:51:24.698Z,-1.05
2023-11-26T19:53:38.232Z,-1.02
2023-11-26T19:55:52.253Z,-0.98
2023-11-26T19:58:05.158Z,-0.94
2023-11-26T20:00:20.600Z,-0.91
2023-11-26T20:02:33.511Z,-0.89
2023-11-26T20:04:46.422Z,-0.85
2023-11-26T20:06:59.293Z,-0.82
2023-11-26T20:09:12.136Z,-0.78
2023-11-26T20:11:24.993Z,-0.73
2023-11-26T20:13:38.408Z,-0.68
2023-11-26T20:15:51.343Z,-0.66
2023-11-26T20:18:05.436Z,-0.63
2023-11-26T20:20:18.381Z,-0.60
2023-11-26T20:22:32.041Z,-0.57
2023-11-26T20:24:44.894Z,-0.51
2023-11-26T20:26:57.870Z,-0.47
2023-11-26T20:29:10.707Z,-0.42
2023-11-26T20:31:23.582Z,-0.38
2023-11-26T20:33:38.734Z,-0.36
2023-11-26T20:35:51.918Z,-0.33
2023-11-26T20:38:04.878Z,-0.31
2023-11-26T20:40:17.821Z,-0.31
2023-11-26T20:42:30.877Z,-0.30
2023-11-26T20:44:47.637Z,-0.28
2023-11-26T20:47:04.387Z,-0.25
2023-11-26T20:49:21.764Z,-0.24
2023-11-26T20:51:34.764Z,-0.22
2023-11-26T20:53:49.549Z,-0.20
2023-11-26T20:56:02.467Z,-0.17
2023-11-26T20:58:17.165Z,-0.16
2023-11-26T21:00:30.060Z,-0.17
2023-11-26T21:02:44.545Z,-0.15
2023-11-26T21:04:57.517Z,-0.13
2023-11-26T21:07:11.533Z,-0.15
2023-11-26T21:09:25.244Z,-0.16
2023-11-26T21:11:38.020Z,-0.16
2023-11-26T21:13:51.081Z,-0.14
2023-11-26T21:16:04.752Z,-0.10
2023-11-26T21:18:17.725Z,-0.06
2023-11-26T21:20:30.578Z,-0.06
2023-11-26T21:22:43.494Z,-0.04
2023-11-26T21:24:56.610Z,-0.03
2023-11-26T21:27:09.765Z,0.01
2023-11-26T21:29:22.621Z,0.05
2023-11-26T21:31:38.334Z,0.07
2023-11-26T21:33:51.558Z,0.08
2023-11-26T21:36:04.717Z,0.04
2023-11-26T21:38:17.581Z,0.00
2023-11-26T21:40:30.730Z,-0.04
2023-11-26T21:42:43.618Z,-0.08
2023-11-26T21:44:56.494Z,-0.08
2023-11-26T21:47:09.429Z,-0.08
2023-11-26T21:49:22.339Z,-0.12
2023-11-26T21:51:35.247Z,-0.14
2023-11-26T21:53:48.120Z,-0.14
2023-11-26T21:56:01.925Z,-0.14
2023-11-26T21:58:14.981Z,-0.15
2023-11-26T22:00:27.851Z,-0.17
2023-11-26T22:02:40.858Z,-0.18
2023-11-26T22:04:53.744Z,-0.20
2023-11-26T22:07:06.596Z,-0.21
2023-11-26T22:09:20.014Z,-0.19
2023-11-26T22:11:32.930Z,-0.20
2023-11-26T22:13:47.158Z,-0.22
2023-11-26T22:16:01.032Z,-0.23
2023-11-26T22:18:14.341Z,-0.22
2023-11-26T22:20:27.181Z,-0.21
2023-11-26T22:22:42.836Z,-0.17
2023-11-26T22:24:59.685Z,-0.15
2023-11-26T22:27:14.048Z,-0.12
2023-11-26T22:29:26.901Z,-0.07
2023-11-26T22:31:39.872Z,-0.02
2023-11-26T22:33:52.825Z,-0.01
2023-11-26T22:36:06.088Z,-0.02
2023-11-26T22:38:19.277Z,-0.03
2023-11-26T22:40:32.079Z,-0.01
2023-11-26T22:42:45.051Z,0.03
2023-11-26T22:44:58.214Z,0.04
2023-11-26T22:47:11.098Z,0.06
2023-11-26T22:49:24.067Z,0.04
2023-11-26T22:51:36.933Z,0.03
2023-11-26T22:53:51.235Z,0.07
2023-11-26T22:56:04.756Z,0.08
2023-11-26T22:58:17.623Z,0.08
2023-11-26T23:00:31.574Z,0.10
2023-11-26T23:02:44.794Z,0.13
2023-11-26T23:04:57.691Z,0.15
2023-11-26T23:07:10.512Z,0.15
2023-11-26T23:09:23.350Z,0.15
2023-11-26T23:11:36.602Z,0.19
2023-11-26T23:13:52.362Z,0.24
2023-11-26T23:16:08.342Z,0.26
2023-11-26T23:18:21.195Z,0.27
2023-11-26T23:20:34.080Z,0.29
2023-11-26T23:22:46.980Z,0.25
2023-11-26T23:25:00.623Z,0.24
2023-11-26T23:27:13.949Z,0.25
2023-11-26T23:29:26.782Z,0.31
2023-11-26T23:31:41.100Z,0.31
2023-11-26T23:33:54.755Z,0.29
2023-11-26T23:36:08.102Z,0.27
2023-11-26T23:38:20.922Z,0.27
2023-11-26T23:40:33.766Z,0.30
2023-11-26T23:42:46.640Z,0.33
2023-11-26T23:44:59.714Z,0.34
2023-11-26T23:47:12.720Z,0.34
2023-11-26T23:49:25.681Z,0.33
2023-11-26T23:51:39.839Z,0.33
2023-11-26T23:53:52.748Z,0.34
2023-11-26T23:56:06.195Z,0.36
2023-11-26T23:58:19.822Z,0.37
